createdAt,value
2019-03-17T00:00:02.033Z,10.4
2019-03-17T00:05:01.960Z,10.4
2019-03-17T00:10:01.645Z,10.4
2019-03-17T00:15:05.426Z,10.4
2019-03-17T00:20:02.161Z,10.4
2019-03-17T00:25:08.820Z,10.4
2019-03-17T00:30:01.500Z,10.5
2019-03-17T00:35:01.970Z,10.5
2019-03-17T00:40:01.498Z,10.5
2019-03-17T00:45:01.428Z,10.6
2019-03-17T00:50:01.885Z,10.6
2019-03-17T00:55:01.553Z,10.6
2019-03-17T01:00:01.724Z,10.6
2019-03-17T01:05:01.597Z,10.6
2019-03-17T01:10:01.338Z,10.7
2019-03-17T01:15:01.892Z,10.7
2019-03-17T01:20:01.841Z,10.7
2019-03-17T01:25:02.313Z,10.7
2019-03-17T01:30:01.923Z,10.7
2019-03-17T01:35:08.840Z,10.7
2019-03-17T01:40:01.609Z,10.7
2019-03-17T01:45:01.923Z,10.7
2019-03-17T01:50:01.785Z,10.7
2019-03-17T01:55:01.742Z,10.7
2019-03-17T02:00:01.309Z,10.8
2019-03-17T02:05:01.385Z,10.8
2019-03-17T02:10:01.941Z,10.8
2019-03-17T02:15:01.949Z,10.7
2019-03-17T02:20:02.363Z,10.8
2019-03-17T02:25:01.969Z,10.7
2019-03-17T02:30:01.645Z,10.7
2019-03-17T02:35:01.337Z,10.6
2019-03-17T02:40:02.332Z,10.7
2019-03-17T02:45:01.917Z,10.7
2019-03-17T02:50:01.759Z,10.6
2019-03-17T02:55:01.585Z,10.6
2019-03-17T03:00:02.209Z,10.6
2019-03-17T03:05:01.295Z,10.6
2019-03-17T03:10:01.261Z,10.6
2019-03-17T03:15:01.246Z,10.5
2019-03-17T03:20:02.443Z,10.5
2019-03-17T03:25:01.624Z,10.5
2019-03-17T03:30:01.396Z,10.4
2019-03-17T03:35:01.357Z,10.4
2019-03-17T03:40:02.222Z,10.4
2019-03-17T03:45:02.057Z,10.4
2019-03-17T03:50:01.985Z,10.3
2019-03-17T03:55:01.736Z,10.3
2019-03-17T04:00:02.183Z,10.3
2019-03-17T04:05:01.738Z,10.3
2019-03-17T04:10:01.485Z,10.3
2019-03-17T04:15:01.244Z,10.3
2019-03-17T04:20:02.093Z,10.2
2019-03-17T04:25:01.926Z,10.2
2019-03-17T04:30:01.354Z,10.1
2019-03-17T04:35:01.765Z,10
2019-03-17T04:40:02.292Z,9.8
2019-03-17T04:45:02.097Z,9.7
2019-03-17T04:50:01.702Z,9.7
2019-03-17T04:55:01.573Z,9.6
2019-03-17T05:00:02.070Z,9.5
2019-03-17T05:05:01.679Z,9.5
2019-03-17T05:10:01.851Z,9.5
2019-03-17T05:15:01.491Z,9.4
2019-03-17T05:20:01.697Z,9.5
2019-03-17T05:25:01.212Z,9.5
2019-03-17T05:30:02.398Z,9.5
2019-03-17T05:35:01.501Z,9.6
2019-03-17T05:40:02.718Z,9.7
2019-03-17T05:45:01.218Z,9.7
2019-03-17T05:50:02.336Z,9.7
2019-03-17T05:55:01.925Z,9.7
2019-03-17T06:00:01.387Z,9.8
2019-03-17T06:05:01.481Z,9.9
2019-03-17T06:10:01.823Z,9.9
2019-03-17T06:15:02.282Z,10
2019-03-17T06:20:02.051Z,10
2019-03-17T06:25:01.921Z,10
2019-03-17T06:30:01.454Z,10
2019-03-17T06:35:01.990Z,10
2019-03-17T06:40:01.205Z,10.1
2019-03-17T06:45:02.487Z,10.1
2019-03-17T06:50:01.449Z,10.1
2019-03-17T06:55:01.959Z,10
2019-03-17T07:00:01.448Z,10
2019-03-17T07:05:01.694Z,9.6
2019-03-17T07:10:01.451Z,8.9
2019-03-17T07:15:01.540Z,8.5
2019-03-17T07:20:01.257Z,8.2
2019-03-17T07:25:02.453Z,8
2019-03-17T07:30:01.921Z,7.9
2019-03-17T07:35:01.559Z,7.8
2019-03-17T07:40:01.613Z,7.7
2019-03-17T07:45:02.057Z,7.6
2019-03-17T07:50:01.607Z,7.6
2019-03-17T07:55:02.116Z,7.5
2019-03-17T08:00:01.719Z,7.5
2019-03-17T08:05:01.732Z,7.5
2019-03-17T08:10:01.849Z,7.4
2019-03-17T08:15:01.411Z,7.4
2019-03-17T08:20:01.662Z,7.4
2019-03-17T08:25:01.452Z,7.4
2019-03-17T08:30:02.009Z,7.5
2019-03-17T08:35:01.401Z,7.5
2019-03-17T08:40:02.105Z,7.6
2019-03-17T08:45:01.240Z,7.7
2019-03-17T08:50:01.485Z,7.7
2019-03-17T08:55:01.412Z,7.9
2019-03-17T09:00:02.150Z,8
2019-03-17T09:05:01.205Z,8
2019-03-17T09:10:01.322Z,8.1
2019-03-17T09:15:01.625Z,8.2
2019-03-17T09:20:01.619Z,8.2
2019-03-17T09:25:01.678Z,8.3
2019-03-17T09:30:01.704Z,8.2
2019-03-17T09:35:01.808Z,8.2
2019-03-17T09:40:02.067Z,8.1
2019-03-17T09:45:01.464Z,8
2019-03-17T09:50:01.742Z,7.9
2019-03-17T09:55:01.819Z,7.9
2019-03-17T10:00:01.617Z,7.9
2019-03-17T10:05:02.070Z,7.9
2019-03-17T10:10:01.902Z,7.9
2019-03-17T10:15:01.761Z,8
2019-03-17T10:20:01.309Z,8
2019-03-17T10:25:01.370Z,8
2019-03-17T10:30:01.987Z,7.9
2019-03-17T10:35:01.688Z,7.9
2019-03-17T10:40:01.418Z,7.9
2019-03-17T10:45:01.724Z,8.1
2019-03-17T10:50:01.863Z,8.2
2019-03-17T10:55:01.378Z,8.4
2019-03-17T11:00:02.222Z,8.5
2019-03-17T11:05:01.812Z,8.7
2019-03-17T11:10:01.634Z,8.9
2019-03-17T11:15:01.831Z,8.8
2019-03-17T11:20:01.750Z,8.9
2019-03-17T11:25:01.964Z,8.9
2019-03-17T11:30:02.184Z,9.3
2019-03-17T11:35:01.178Z,9.7
2019-03-17T11:40:01.942Z,10
2019-03-17T11:45:02.107Z,10.2
2019-03-17T11:50:01.949Z,10.6
2019-03-17T11:55:02.069Z,10.6
2019-03-17T12:00:01.465Z,10.4
2019-03-17T12:05:01.496Z,10.5
2019-03-17T12:10:02.486Z,10.8
2019-03-17T12:15:02.104Z,11
2019-03-17T12:20:01.556Z,11.2
2019-03-17T12:25:01.448Z,11.5
2019-03-17T12:30:02.220Z,11.7
2019-03-17T12:35:01.195Z,11.5
2019-03-17T12:40:02.579Z,11.8
2019-03-17T12:45:01.418Z,12.1
2019-03-17T12:50:01.647Z,11.9
2019-03-17T12:55:01.507Z,11.3
2019-03-17T13:00:02.043Z,10.9
2019-03-17T13:05:01.587Z,10.7
2019-03-17T13:10:14.390Z,10.7
2019-03-17T13:15:01.755Z,10.6
2019-03-17T13:20:01.853Z,10.5
2019-03-17T13:25:02.081Z,10.8
2019-03-17T13:30:01.248Z,10.9
2019-03-17T13:35:01.656Z,10.9
2019-03-17T13:40:02.082Z,10.6
2019-03-17T13:45:01.663Z,10.4
2019-03-17T13:50:01.675Z,10.3
2019-03-17T13:55:01.647Z,10.1
2019-03-17T14:00:01.388Z,9.8
2019-03-17T14:05:01.499Z,9.7
2019-03-17T14:10:12.872Z,9.6
2019-03-17T14:15:01.585Z,9.7
2019-03-17T14:20:02.164Z,9.6
2019-03-17T14:25:01.877Z,9.6
2019-03-17T14:30:01.469Z,9.5
2019-03-17T14:35:01.292Z,9.5
2019-03-17T14:40:02.044Z,9.4
2019-03-17T14:45:02.083Z,9.4
2019-03-17T14:50:02.018Z,9.3
2019-03-17T14:55:01.928Z,9.2
2019-03-17T15:00:01.734Z,9.3
2019-03-17T15:05:01.649Z,9.3
2019-03-17T15:10:01.753Z,9.3
2019-03-17T15:15:01.856Z,9.2
2019-03-17T15:20:01.841Z,9
2019-03-17T15:25:01.643Z,8.9
2019-03-17T15:30:01.971Z,8.9
2019-03-17T15:35:01.842Z,9.2
2019-03-17T15:40:02.014Z,9.1
2019-03-17T15:45:02.184Z,8.9
2019-03-17T15:50:01.798Z,8.8
2019-03-17T15:55:02.017Z,8.7
2019-03-17T16:00:01.428Z,8.4
2019-03-17T16:05:02.053Z,8.2
2019-03-17T16:10:01.320Z,8
2019-03-17T16:15:02.129Z,8
2019-03-17T16:20:02.304Z,8.1
2019-03-17T16:25:01.946Z,7.9
2019-03-17T16:30:01.448Z,7.8
2019-03-17T16:35:01.505Z,7.6
2019-03-17T16:40:02.298Z,7.7
2019-03-17T16:45:01.268Z,7.7
2019-03-17T16:50:01.983Z,7.7
2019-03-17T16:55:01.553Z,7.6
2019-03-17T17:00:02.096Z,7.6
2019-03-17T17:05:02.045Z,7.4
2019-03-17T17:10:01.876Z,7.3
2019-03-17T17:15:02.256Z,7.2
2019-03-17T17:20:01.931Z,7.1
2019-03-17T17:25:01.867Z,7.1
2019-03-17T17:30:01.560Z,7
2019-03-17T17:35:01.772Z,7
2019-03-17T17:40:01.501Z,7
2019-03-17T17:45:02.154Z,7.1
2019-03-17T17:50:01.602Z,7.1
2019-03-17T17:55:02.148Z,7.1
2019-03-17T18:00:01.695Z,7
2019-03-17T18:05:02.041Z,6.8
2019-03-17T18:10:01.346Z,6.6
2019-03-17T18:15:01.490Z,6.5
2019-03-17T18:20:02.162Z,6.5
2019-03-17T18:25:01.692Z,6.4
2019-03-17T18:30:02.095Z,6.4
2019-03-17T18:35:01.559Z,6.4
2019-03-17T18:40:01.889Z,6.4
2019-03-17T18:45:01.731Z,6.3
2019-03-17T18:50:02.492Z,6.3
2019-03-17T18:55:01.824Z,6.1
2019-03-17T19:00:04.314Z,6
2019-03-17T19:05:01.320Z,5.9
2019-03-17T19:10:02.565Z,5.9
2019-03-17T19:15:01.688Z,5.9
2019-03-17T19:20:02.088Z,5.9
2019-03-17T19:25:02.676Z,5.9
2019-03-17T19:30:01.214Z,5.9
2019-03-17T19:35:01.430Z,5.9
2019-03-17T19:40:01.955Z,5.9
2019-03-17T19:45:01.671Z,5.9
2019-03-17T19:50:01.559Z,5.9
2019-03-17T19:55:01.800Z,5.9
2019-03-17T20:00:01.503Z,5.8
2019-03-17T20:05:01.354Z,5.8
2019-03-17T20:10:01.943Z,5.8
2019-03-17T20:15:01.487Z,5.7
2019-03-17T20:20:01.260Z,5.7
2019-03-17T20:25:01.526Z,5.6
2019-03-17T20:30:01.857Z,5.7
2019-03-17T20:35:01.791Z,5.7
2019-03-17T20:40:01.932Z,5.7
2019-03-17T20:45:02.032Z,5.7
2019-03-17T20:50:01.757Z,5.8
2019-03-17T20:55:02.045Z,5.8
2019-03-17T21:00:01.999Z,5.8
2019-03-17T21:05:01.340Z,5.9
2019-03-17T21:10:01.947Z,5.9
2019-03-17T21:15:01.854Z,5.8
2019-03-17T21:20:01.773Z,5.8
2019-03-17T21:25:02.064Z,5.8
2019-03-17T21:30:02.117Z,5.8
2019-03-17T21:35:01.917Z,5.8
2019-03-17T21:40:01.265Z,5.7
2019-03-17T21:45:01.632Z,5.7
2019-03-17T21:50:02.194Z,5.8
2019-03-17T21:55:01.638Z,5.8
2019-03-17T22:00:02.086Z,5.7
2019-03-17T22:05:02.156Z,5.7
2019-03-17T22:10:01.837Z,5.6
2019-03-17T22:15:01.687Z,5.6
2019-03-17T22:20:02.324Z,5.5
2019-03-17T22:25:01.869Z,5.5
2019-03-17T22:30:01.422Z,5.5
2019-03-17T22:35:02.286Z,5.4
2019-03-17T22:40:01.663Z,5.5
2019-03-17T22:45:01.602Z,5.6
2019-03-17T22:50:01.651Z,5.6
2019-03-17T22:55:02.051Z,5.7
2019-03-17T23:00:01.841Z,5.6
2019-03-17T23:05:02.321Z,5.5
2019-03-17T23:10:02.048Z,5.2
2019-03-17T23:15:01.999Z,5.1
2019-03-17T23:20:01.562Z,5
2019-03-17T23:25:01.818Z,5
2019-03-17T23:30:01.649Z,5.1
2019-03-17T23:35:01.481Z,5.1
2019-03-17T23:40:01.444Z,5.1
2019-03-17T23:45:02.141Z,5.1
2019-03-17T23:50:01.769Z,5
2019-03-17T23:55:01.423Z,5
